Baudette International Airport
KBDE : rendu visible

Aérodrome :











RETROUVEZ-NOUS SUR...

 
LOGIN :

S'inscrire | Disclaimer

   EN    FR    IT 

 









Légende :    VFR   VFR Marginal   IFR   IFR Intensif   IFR Très Intensif
Visi : 
Plafond : 
>= 8 km
>= 3000ft
5 à 8 km
1000 à 3000 ft
1500m à 5 km
500 à 1000 ft
800 à 1500m
200 à 500 ft
< 800m
< 200 ft
Symboles :   Orages  Brouillard  Fortes neiges  Fortes précipitations  Vent > 20 kt






- Altitude de l'aérodrome : 1086 ft


KBDE - Baudette International

DERNIER METAR :
  • 041453Z AUTO 10006KT 10SM CLR 21/18 A3005 RMK AO2 PRESFR SLP176 T02110178 50001 $

METARs EXPIRÉS :
  • 041353Z AUTO 00000KT 10SM CLR 20/18 A3011 RMK AO2 SLP196 T02000178 $
  • 041253Z AUTO 00000KT 10SM CLR 20/17 A3009 RMK AO2 SLP186 T02000172 $

TAF N/A
FIR KZMP / Amérique du Nord



MET'MAP, la Météo Aéronautique d'un coup d'oeil ! - Copyright ORBIFLY Décembre 2007 - Disclaimer

ORBIFLY MET'MAP TEAM :

Programmation & Développement : Alexandra Zaïnal
Sur une idée originale de : Baudouin d'Aumeries
Assistance à la programmation : Marc-Olivier Méhu
Soutien technique & logistique : Manuel Goepfert

Contact : metmap@orbifly.com




SOURCES & CREDITS :

   NOAA       Earth
Advisory